sensor_id;sensor_type;location;lat;lon;timestamp;P1;durP1;ratioP1;P2;durP2;ratioP2
19285;SDS011;9776;50.798;6.430;2022-07-01T00:00:10;3.38;;;3.17;;
19285;SDS011;9776;50.798;6.430;2022-07-01T00:02:39;3.13;;;2.92;;
19285;SDS011;9776;50.798;6.430;2022-07-01T00:05:06;3.70;;;3.50;;
19285;SDS011;9776;50.798;6.430;2022-07-01T00:07:33;3.50;;;3.22;;
19285;SDS011;9776;50.798;6.430;2022-07-01T00:10:00;3.30;;;3.10;;
19285;SDS011;9776;50.798;6.430;2022-07-01T00:12:27;3.28;;;3.08;;
19285;SDS011;9776;50.798;6.430;2022-07-01T00:14:54;4.10;;;3.60;;
19285;SDS011;9776;50.798;6.430;2022-07-01T00:17:21;3.08;;;2.88;;
19285;SDS011;9776;50.798;6.430;2022-07-01T00:19:49;3.33;;;3.15;;
19285;SDS011;9776;50.798;6.430;2022-07-01T00:22:16;2.95;;;2.80;;
19285;SDS011;9776;50.798;6.430;2022-07-01T00:24:43;3.22;;;3.03;;
19285;SDS011;9776;50.798;6.430;2022-07-01T00:27:11;3.75;;;3.45;;
19285;SDS011;9776;50.798;6.430;2022-07-01T00:29:39;2.80;;;2.60;;
19285;SDS011;9776;50.798;6.430;2022-07-01T00:32:06;2.60;;;2.50;;
19285;SDS011;9776;50.798;6.430;2022-07-01T00:34:34;3.30;;;3.10;;
19285;SDS011;9776;50.798;6.430;2022-07-01T00:37:02;2.97;;;2.88;;
19285;SDS011;9776;50.798;6.430;2022-07-01T00:39:29;3.10;;;3.00;;
19285;SDS011;9776;50.798;6.430;2022-07-01T00:41:59;3.03;;;2.90;;
19285;SDS011;9776;50.798;6.430;2022-07-01T00:44:27;3.25;;;3.13;;
19285;SDS011;9776;50.798;6.430;2022-07-01T00:46:54;3.35;;;3.15;;
19285;SDS011;9776;50.798;6.430;2022-07-01T00:49:22;3.33;;;3.13;;
19285;SDS011;9776;50.798;6.430;2022-07-01T00:51:50;2.75;;;2.65;;
19285;SDS011;9776;50.798;6.430;2022-07-01T00:54:19;2.83;;;2.72;;
19285;SDS011;9776;50.798;6.430;2022-07-01T00:56:46;2.78;;;2.67;;
19285;SDS011;9776;50.798;6.430;2022-07-01T00:59:13;3.13;;;2.92;;
19285;SDS011;9776;50.798;6.430;2022-07-01T01:01:40;2.75;;;2.65;;
19285;SDS011;9776;50.798;6.430;2022-07-01T01:04:08;2.28;;;2.17;;
19285;SDS011;9776;50.798;6.430;2022-07-01T01:06:34;2.80;;;2.70;;
19285;SDS011;9776;50.798;6.430;2022-07-01T01:09:01;2.60;;;2.47;;
19285;SDS011;9776;50.798;6.430;2022-07-01T01:11:30;2.58;;;2.47;;
19285;SDS011;9776;50.798;6.430;2022-07-01T01:13:58;2.45;;;2.33;;
19285;SDS011;9776;50.798;6.430;2022-07-01T01:16:25;2.35;;;2.25;;
19285;SDS011;9776;50.798;6.430;2022-07-01T01:18:52;2.38;;;2.28;;
19285;SDS011;9776;50.798;6.430;2022-07-01T01:21:20;2.58;;;2.47;;
19285;SDS011;9776;50.798;6.430;2022-07-01T01:23:47;2.10;;;2.00;;
19285;SDS011;9776;50.798;6.430;2022-07-01T01:26:15;2.25;;;2.15;;
19285;SDS011;9776;50.798;6.430;2022-07-01T01:28:42;2.15;;;2.05;;
19285;SDS011;9776;50.798;6.430;2022-07-01T01:31:09;2.03;;;1.92;;
19285;SDS011;9776;50.798;6.430;2022-07-01T01:33:37;1.95;;;1.85;;
19285;SDS011;9776;50.798;6.430;2022-07-01T01:36:04;1.80;;;1.70;;
19285;SDS011;9776;50.798;6.430;2022-07-01T01:38:33;2.00;;;1.90;;
19285;SDS011;9776;50.798;6.430;2022-07-01T01:41:01;2.10;;;2.00;;
19285;SDS011;9776;50.798;6.430;2022-07-01T01:43:28;1.83;;;1.73;;
19285;SDS011;9776;50.798;6.430;2022-07-01T01:45:55;1.80;;;1.70;;
19285;SDS011;9776;50.798;6.430;2022-07-01T01:48:21;1.80;;;1.70;;
19285;SDS011;9776;50.798;6.430;2022-07-01T01:50:48;1.65;;;1.55;;
19285;SDS011;9776;50.798;6.430;2022-07-01T01:53:15;1.35;;;1.25;;
19285;SDS011;9776;50.798;6.430;2022-07-01T01:55:43;1.75;;;1.65;;
19285;SDS011;9776;50.798;6.430;2022-07-01T01:58:10;2.13;;;1.38;;
19285;SDS011;9776;50.798;6.430;2022-07-01T02:00:37;1.30;;;1.30;;
19285;SDS011;9776;50.798;6.430;2022-07-01T02:03:04;1.55;;;1.42;;
19285;SDS011;9776;50.798;6.430;2022-07-01T02:05:31;1.42;;;1.33;;
19285;SDS011;9776;50.798;6.430;2022-07-01T02:07:58;1.00;;;1.00;;
19285;SDS011;9776;50.798;6.430;2022-07-01T02:10:26;1.15;;;1.15;;
19285;SDS011;9776;50.798;6.430;2022-07-01T02:12:55;1.33;;;1.23;;
19285;SDS011;9776;50.798;6.430;2022-07-01T02:15:22;1.02;;;1.00;;
19285;SDS011;9776;50.798;6.430;2022-07-01T02:17:49;1.13;;;1.13;;
19285;SDS011;9776;50.798;6.430;2022-07-01T02:20:16;1.30;;;1.30;;
19285;SDS011;9776;50.798;6.430;2022-07-01T02:22:43;1.02;;;1.00;;
19285;SDS011;9776;50.798;6.430;2022-07-01T02:25:10;1.00;;;1.00;;
19285;SDS011;9776;50.798;6.430;2022-07-01T02:27:37;2.22;;;1.27;;
19285;SDS011;9776;50.798;6.430;2022-07-01T02:30:06;1.00;;;1.00;;
19285;SDS011;9776;50.798;6.430;2022-07-01T02:32:33;1.30;;;1.20;;
19285;SDS011;9776;50.798;6.430;2022-07-01T02:35:00;1.25;;;1.20;;
19285;SDS011;9776;50.798;6.430;2022-07-01T02:37:27;1.30;;;1.23;;
19285;SDS011;9776;50.798;6.430;2022-07-01T02:39:53;1.02;;;1.02;;
19285;SDS011;9776;50.798;6.430;2022-07-01T02:42:20;1.40;;;1.30;;
19285;SDS011;9776;50.798;6.430;2022-07-01T02:44:51;2.25;;;1.33;;
19285;SDS011;9776;50.798;6.430;2022-07-01T02:47:19;1.10;;;1.00;;
19285;SDS011;9776;50.798;6.430;2022-07-01T02:49:47;1.77;;;1.30;;
19285;SDS011;9776;50.798;6.430;2022-07-01T02:52:14;1.27;;;1.20;;
19285;SDS011;9776;50.798;6.430;2022-07-01T02:54:41;1.40;;;1.30;;
19285;SDS011;9776;50.798;6.430;2022-07-01T02:57:09;1.40;;;1.30;;
19285;SDS011;9776;50.798;6.430;2022-07-01T02:59:36;1.27;;;1.27;;
19285;SDS011;9776;50.798;6.430;2022-07-01T03:02:03;1.40;;;1.30;;
19285;SDS011;9776;50.798;6.430;2022-07-01T03:04:32;1.10;;;1.10;;
19285;SDS011;9776;50.798;6.430;2022-07-01T03:06:59;1.30;;;1.20;;
19285;SDS011;9776;50.798;6.430;2022-07-01T03:09:26;1.15;;;1.05;;
19285;SDS011;9776;50.798;6.430;2022-07-01T03:11:52;1.50;;;1.38;;
19285;SDS011;9776;50.798;6.430;2022-07-01T03:14:19;1.58;;;0.90;;
19285;SDS011;9776;50.798;6.430;2022-07-01T03:16:46;1.58;;;1.48;;
19285;SDS011;9776;50.798;6.430;2022-07-01T03:19:13;1.33;;;1.23;;
19285;SDS011;9776;50.798;6.430;2022-07-01T03:21:41;2.10;;;1.35;;
19285;SDS011;9776;50.798;6.430;2022-07-01T03:24:08;1.00;;;1.00;;
19285;SDS011;9776;50.798;6.430;2022-07-01T03:26:35;1.17;;;1.17;;
19285;SDS011;9776;50.798;6.430;2022-07-01T03:29:02;2.90;;;1.30;;
19285;SDS011;9776;50.798;6.430;2022-07-01T03:31:28;1.60;;;1.40;;
19285;SDS011;9776;50.798;6.430;2022-07-01T03:33:56;1.40;;;1.30;;
19285;SDS011;9776;50.798;6.430;2022-07-01T03:36:23;1.20;;;1.20;;
19285;SDS011;9776;50.798;6.430;2022-07-01T03:38:51;1.27;;;1.25;;
19285;SDS011;9776;50.798;6.430;2022-07-01T03:41:18;1.70;;;1.05;;
19285;SDS011;9776;50.798;6.430;2022-07-01T03:43:45;1.55;;;1.35;;
19285;SDS011;9776;50.798;6.430;2022-07-01T03:46:12;1.40;;;1.30;;
19285;SDS011;9776;50.798;6.430;2022-07-01T03:48:38;1.45;;;1.17;;
19285;SDS011;9776;50.798;6.430;2022-07-01T03:51:10;1.40;;;1.30;;
19285;SDS011;9776;50.798;6.430;2022-07-01T03:53:37;1.50;;;1.40;;
19285;SDS011;9776;50.798;6.430;2022-07-01T03:56:22;1.48;;;1.33;;
19285;SDS011;9776;50.798;6.430;2022-07-01T03:58:49;1.27;;;1.27;;
19285;SDS011;9776;50.798;6.430;2022-07-01T04:01:16;1.48;;;1.20;;
19285;SDS011;9776;50.798;6.430;2022-07-01T04:03:43;1.20;;;1.13;;
19285;SDS011;9776;50.798;6.430;2022-07-01T04:06:10;1.50;;;1.40;;
19285;SDS011;9776;50.798;6.430;2022-07-01T04:08:36;1.40;;;1.30;;
19285;SDS011;9776;50.798;6.430;2022-07-01T04:11:03;1.30;;;1.20;;
19285;SDS011;9776;50.798;6.430;2022-07-01T04:13:34;1.40;;;1.30;;
19285;SDS011;9776;50.798;6.430;2022-07-01T04:16:02;1.30;;;1.27;;
19285;SDS011;9776;50.798;6.430;2022-07-01T04:18:30;2.25;;;1.40;;
19285;SDS011;9776;50.798;6.430;2022-07-01T04:20:57;1.30;;;1.25;;
19285;SDS011;9776;50.798;6.430;2022-07-01T04:23:42;1.60;;;1.50;;
19285;SDS011;9776;50.798;6.430;2022-07-01T04:26:10;1.50;;;1.40;;
19285;SDS011;9776;50.798;6.430;2022-07-01T04:28:38;2.70;;;1.30;;
19285;SDS011;9776;50.798;6.430;2022-07-01T04:31:05;1.60;;;1.50;;
19285;SDS011;9776;50.798;6.430;2022-07-01T04:33:31;1.30;;;1.20;;
19285;SDS011;9776;50.798;6.430;2022-07-01T04:35:58;1.42;;;1.33;;
19285;SDS011;9776;50.798;6.430;2022-07-01T04:38:25;1.73;;;1.42;;
19285;SDS011;9776;50.798;6.430;2022-07-01T04:40:52;1.20;;;1.05;;
19285;SDS011;9776;50.798;6.430;2022-07-01T04:43:38;2.15;;;1.20;;
19285;SDS011;9776;50.798;6.430;2022-07-01T04:46:05;1.50;;;1.40;;
19285;SDS011;9776;50.798;6.430;2022-07-01T04:48:32;1.35;;;1.25;;
19285;SDS011;9776;50.798;6.430;2022-07-01T04:50:59;1.40;;;1.30;;
19285;SDS011;9776;50.798;6.430;2022-07-01T04:53:25;1.45;;;1.35;;
19285;SDS011;9776;50.798;6.430;2022-07-01T04:55:52;1.27;;;1.17;;
19285;SDS011;9776;50.798;6.430;2022-07-01T04:58:19;1.83;;;1.33;;
19285;SDS011;9776;50.798;6.430;2022-07-01T05:00:47;1.05;;;0.85;;
19285;SDS011;9776;50.798;6.430;2022-07-01T05:03:14;1.40;;;1.33;;
19285;SDS011;9776;50.798;6.430;2022-07-01T05:05:41;1.42;;;1.33;;
19285;SDS011;9776;50.798;6.430;2022-07-01T05:08:08;1.50;;;1.40;;
19285;SDS011;9776;50.798;6.430;2022-07-01T05:10:35;1.30;;;1.20;;
19285;SDS011;9776;50.798;6.430;2022-07-01T05:13:02;1.35;;;1.27;;
19285;SDS011;9776;50.798;6.430;2022-07-01T05:15:30;1.20;;;1.10;;
19285;SDS011;9776;50.798;6.430;2022-07-01T05:17:58;1.50;;;1.40;;
19285;SDS011;9776;50.798;6.430;2022-07-01T05:20:42;1.05;;;1.05;;
19285;SDS011;9776;50.798;6.430;2022-07-01T05:23:27;1.50;;;1.40;;
19285;SDS011;9776;50.798;6.430;2022-07-01T05:25:54;1.65;;;1.17;;
19285;SDS011;9776;50.798;6.430;2022-07-01T05:28:21;4.20;;;2.28;;
19285;SDS011;9776;50.798;6.430;2022-07-01T05:30:48;1.50;;;1.40;;
19285;SDS011;9776;50.798;6.430;2022-07-01T05:33:16;1.30;;;1.20;;
19285;SDS011;9776;50.798;6.430;2022-07-01T05:35:46;1.40;;;1.30;;
19285;SDS011;9776;50.798;6.430;2022-07-01T05:38:13;1.80;;;1.25;;
19285;SDS011;9776;50.798;6.430;2022-07-01T05:40:40;1.33;;;1.23;;
19285;SDS011;9776;50.798;6.430;2022-07-01T05:43:07;1.27;;;1.17;;
19285;SDS011;9776;50.798;6.430;2022-07-01T05:45:34;1.55;;;1.45;;
19285;SDS011;9776;50.798;6.430;2022-07-01T05:48:01;1.38;;;1.33;;
19285;SDS011;9776;50.798;6.430;2022-07-01T05:50:29;1.52;;;1.42;;
19285;SDS011;9776;50.798;6.430;2022-07-01T05:52:56;1.48;;;1.38;;
19285;SDS011;9776;50.798;6.430;2022-07-01T05:55:23;1.55;;;1.45;;
19285;SDS011;9776;50.798;6.430;2022-07-01T05:57:50;1.73;;;1.63;;
19285;SDS011;9776;50.798;6.430;2022-07-01T06:00:17;1.55;;;1.45;;
19285;SDS011;9776;50.798;6.430;2022-07-01T06:02:44;1.60;;;1.50;;
19285;SDS011;9776;50.798;6.430;2022-07-01T06:05:11;1.95;;;1.85;;
19285;SDS011;9776;50.798;6.430;2022-07-01T06:07:40;1.55;;;1.40;;
19285;SDS011;9776;50.798;6.430;2022-07-01T06:10:08;3.55;;;1.85;;
19285;SDS011;9776;50.798;6.430;2022-07-01T06:12:36;1.80;;;1.70;;
19285;SDS011;9776;50.798;6.430;2022-07-01T06:15:03;1.50;;;1.40;;
19285;SDS011;9776;50.798;6.430;2022-07-01T06:17:33;1.77;;;1.65;;
19285;SDS011;9776;50.798;6.430;2022-07-01T06:20:00;1.67;;;1.58;;
19285;SDS011;9776;50.798;6.430;2022-07-01T06:22:27;1.48;;;1.38;;
19285;SDS011;9776;50.798;6.430;2022-07-01T06:24:55;1.63;;;1.52;;
19285;SDS011;9776;50.798;6.430;2022-07-01T06:27:22;1.73;;;1.63;;
19285;SDS011;9776;50.798;6.430;2022-07-01T06:29:48;1.40;;;1.30;;
19285;SDS011;9776;50.798;6.430;2022-07-01T06:32:15;1.70;;;1.60;;
19285;SDS011;9776;50.798;6.430;2022-07-01T06:34:42;1.77;;;1.67;;
19285;SDS011;9776;50.798;6.430;2022-07-01T06:37:11;1.58;;;1.48;;
19285;SDS011;9776;50.798;6.430;2022-07-01T06:39:38;1.60;;;1.50;;
19285;SDS011;9776;50.798;6.430;2022-07-01T06:42:07;1.38;;;1.30;;
19285;SDS011;9776;50.798;6.430;2022-07-01T06:44:34;1.45;;;1.35;;
19285;SDS011;9776;50.798;6.430;2022-07-01T06:47:00;1.38;;;1.30;;
19285;SDS011;9776;50.798;6.430;2022-07-01T06:49:27;1.92;;;1.80;;
19285;SDS011;9776;50.798;6.430;2022-07-01T06:51:54;1.70;;;1.60;;
19285;SDS011;9776;50.798;6.430;2022-07-01T06:54:21;1.65;;;1.55;;
19285;SDS011;9776;50.798;6.430;2022-07-01T06:56:48;1.45;;;1.38;;
19285;SDS011;9776;50.798;6.430;2022-07-01T06:59:16;1.67;;;1.58;;
19285;SDS011;9776;50.798;6.430;2022-07-01T07:01:43;1.33;;;1.23;;
19285;SDS011;9776;50.798;6.430;2022-07-01T07:04:09;1.60;;;1.50;;
19285;SDS011;9776;50.798;6.430;2022-07-01T07:06:36;1.40;;;1.30;;
19285;SDS011;9776;50.798;6.430;2022-07-01T07:09:03;1.52;;;1.42;;
19285;SDS011;9776;50.798;6.430;2022-07-01T07:11:30;1.40;;;1.30;;
19285;SDS011;9776;50.798;6.430;2022-07-01T07:14:00;1.40;;;1.30;;
19285;SDS011;9776;50.798;6.430;2022-07-01T07:16:28;1.60;;;1.50;;
19285;SDS011;9776;50.798;6.430;2022-07-01T07:18:55;1.45;;;1.20;;
19285;SDS011;9776;50.798;6.430;2022-07-01T07:21:24;1.50;;;1.35;;
19285;SDS011;9776;50.798;6.430;2022-07-01T07:23:51;1.25;;;1.15;;
19285;SDS011;9776;50.798;6.430;2022-07-01T07:26:18;1.67;;;1.58;;
19285;SDS011;9776;50.798;6.430;2022-07-01T07:28:46;1.23;;;1.20;;
19285;SDS011;9776;50.798;6.430;2022-07-01T07:31:14;1.42;;;1.33;;
19285;SDS011;9776;50.798;6.430;2022-07-01T07:33:42;1.52;;;1.42;;
19285;SDS011;9776;50.798;6.430;2022-07-01T07:36:09;1.65;;;1.55;;
19285;SDS011;9776;50.798;6.430;2022-07-01T07:38:36;1.30;;;1.20;;
19285;SDS011;9776;50.798;6.430;2022-07-01T07:41:03;1.50;;;1.40;;
19285;SDS011;9776;50.798;6.430;2022-07-01T07:43:30;1.05;;;1.05;;
19285;SDS011;9776;50.798;6.430;2022-07-01T07:45:57;1.88;;;1.30;;
19285;SDS011;9776;50.798;6.430;2022-07-01T07:48:24;1.17;;;1.17;;
19285;SDS011;9776;50.798;6.430;2022-07-01T07:50:52;1.40;;;1.30;;
19285;SDS011;9776;50.798;6.430;2022-07-01T07:53:18;1.45;;;1.33;;
19285;SDS011;9776;50.798;6.430;2022-07-01T07:55:45;1.08;;;1.08;;
19285;SDS011;9776;50.798;6.430;2022-07-01T07:58:12;1.35;;;1.27;;
19285;SDS011;9776;50.798;6.430;2022-07-01T08:00:39;2.17;;;1.30;;
19285;SDS011;9776;50.798;6.430;2022-07-01T08:03:06;1.30;;;1.20;;
19285;SDS011;9776;50.798;6.430;2022-07-01T08:05:33;1.20;;;1.10;;
19285;SDS011;9776;50.798;6.430;2022-07-01T08:08:01;1.55;;;1.45;;
19285;SDS011;9776;50.798;6.430;2022-07-01T08:10:28;1.65;;;1.55;;
19285;SDS011;9776;50.798;6.430;2022-07-01T08:12:55;1.80;;;1.70;;
19285;SDS011;9776;50.798;6.430;2022-07-01T08:15:25;1.50;;;1.40;;
19285;SDS011;9776;50.798;6.430;2022-07-01T08:17:51;1.17;;;1.08;;
19285;SDS011;9776;50.798;6.430;2022-07-01T08:20:18;0.98;;;0.98;;
19285;SDS011;9776;50.798;6.430;2022-07-01T08:22:45;1.00;;;1.00;;
19285;SDS011;9776;50.798;6.430;2022-07-01T08:25:14;1.05;;;0.95;;
19285;SDS011;9776;50.798;6.430;2022-07-01T08:27:41;1.08;;;0.98;;
19285;SDS011;9776;50.798;6.430;2022-07-01T08:30:09;1.08;;;1.00;;
19285;SDS011;9776;50.798;6.430;2022-07-01T08:32:36;1.20;;;1.10;;
19285;SDS011;9776;50.798;6.430;2022-07-01T08:35:03;1.35;;;1.25;;
19285;SDS011;9776;50.798;6.430;2022-07-01T08:37:31;0.90;;;0.90;;
19285;SDS011;9776;50.798;6.430;2022-07-01T08:39:58;1.95;;;1.00;;
19285;SDS011;9776;50.798;6.430;2022-07-01T08:42:26;1.20;;;1.10;;
19285;SDS011;9776;50.798;6.430;2022-07-01T08:44:53;1.00;;;1.00;;
19285;SDS011;9776;50.798;6.430;2022-07-01T08:47:20;1.05;;;1.00;;
19285;SDS011;9776;50.798;6.430;2022-07-01T08:49:47;1.10;;;1.00;;
19285;SDS011;9776;50.798;6.430;2022-07-01T08:52:13;1.20;;;1.10;;
19285;SDS011;9776;50.798;6.430;2022-07-01T08:54:41;0.80;;;0.80;;
19285;SDS011;9776;50.798;6.430;2022-07-01T08:57:07;0.95;;;0.95;;
19285;SDS011;9776;50.798;6.430;2022-07-01T08:59:36;1.65;;;0.98;;
19285;SDS011;9776;50.798;6.430;2022-07-01T09:02:03;0.90;;;0.90;;
19285;SDS011;9776;50.798;6.430;2022-07-01T09:04:31;1.38;;;0.90;;
19285;SDS011;9776;50.798;6.430;2022-07-01T09:07:03;0.85;;;0.85;;
19285;SDS011;9776;50.798;6.430;2022-07-01T09:09:36;1.00;;;1.00;;
19285;SDS011;9776;50.798;6.430;2022-07-01T09:12:05;1.23;;;1.13;;
19285;SDS011;9776;50.798;6.430;2022-07-01T09:14:33;1.55;;;1.45;;
19285;SDS011;9776;50.798;6.430;2022-07-01T09:17:03;1.30;;;1.20;;
19285;SDS011;9776;50.798;6.430;2022-07-01T09:19:32;1.45;;;1.35;;
19285;SDS011;9776;50.798;6.430;2022-07-01T09:22:01;1.27;;;1.20;;
19285;SDS011;9776;50.798;6.430;2022-07-01T09:24:30;1.48;;;1.38;;
19285;SDS011;9776;50.798;6.430;2022-07-01T09:26:59;1.38;;;1.27;;
19285;SDS011;9776;50.798;6.430;2022-07-01T09:29:28;1.10;;;1.10;;
19285;SDS011;9776;50.798;6.430;2022-07-01T09:31:57;1.02;;;1.02;;
19285;SDS011;9776;50.798;6.430;2022-07-01T09:34:25;1.33;;;1.17;;
19285;SDS011;9776;50.798;6.430;2022-07-01T09:36:53;0.93;;;0.90;;
19285;SDS011;9776;50.798;6.430;2022-07-01T09:39:21;1.05;;;1.00;;
19285;SDS011;9776;50.798;6.430;2022-07-01T09:41:48;1.10;;;1.00;;
19285;SDS011;9776;50.798;6.430;2022-07-01T09:44:16;0.98;;;0.98;;
19285;SDS011;9776;50.798;6.430;2022-07-01T09:46:52;1.05;;;0.98;;
19285;SDS011;9776;50.798;6.430;2022-07-01T09:49:21;1.38;;;1.27;;
19285;SDS011;9776;50.798;6.430;2022-07-01T09:51:50;2.20;;;1.45;;
19285;SDS011;9776;50.798;6.430;2022-07-01T09:54:17;2.38;;;2.28;;
19285;SDS011;9776;50.798;6.430;2022-07-01T09:56:45;1.92;;;1.83;;
19285;SDS011;9776;50.798;6.430;2022-07-01T09:59:12;1.10;;;1.10;;
19285;SDS011;9776;50.798;6.430;2022-07-01T10:01:39;0.80;;;0.80;;
19285;SDS011;9776;50.798;6.430;2022-07-01T10:04:07;0.98;;;0.60;;
19285;SDS011;9776;50.798;6.430;2022-07-01T10:09:56;1.20;;;1.17;;
19285;SDS011;9776;50.798;6.430;2022-07-01T10:12:35;0.98;;;0.98;;
19285;SDS011;9776;50.798;6.430;2022-07-01T10:15:05;0.77;;;0.77;;
19285;SDS011;9776;50.798;6.430;2022-07-01T10:17:36;1.00;;;0.80;;
19285;SDS011;9776;50.798;6.430;2022-07-01T10:20:08;0.80;;;0.80;;
19285;SDS011;9776;50.798;6.430;2022-07-01T10:22:38;0.80;;;0.80;;
19285;SDS011;9776;50.798;6.430;2022-07-01T10:28:16;0.90;;;0.90;;
19285;SDS011;9776;50.798;6.430;2022-07-01T10:33:41;0.90;;;0.90;;
19285;SDS011;9776;50.798;6.430;2022-07-01T10:36:11;0.85;;;0.85;;
19285;SDS011;9776;50.798;6.430;2022-07-01T10:41:39;1.10;;;0.98;;
19285;SDS011;9776;50.798;6.430;2022-07-01T10:44:07;0.88;;;0.88;;
19285;SDS011;9776;50.798;6.430;2022-07-01T10:46:39;0.88;;;0.80;;
19285;SDS011;9776;50.798;6.430;2022-07-01T10:49:09;0.80;;;0.80;;
19285;SDS011;9776;50.798;6.430;2022-07-01T10:51:47;1.20;;;0.93;;
19285;SDS011;9776;50.798;6.430;2022-07-01T10:57:21;0.80;;;0.80;;
19285;SDS011;9776;50.798;6.430;2022-07-01T10:59:52;0.70;;;0.63;;
19285;SDS011;9776;50.798;6.430;2022-07-01T11:02:21;0.80;;;0.80;;
19285;SDS011;9776;50.798;6.430;2022-07-01T11:04:50;0.77;;;0.77;;
19285;SDS011;9776;50.798;6.430;2022-07-01T11:07:19;0.93;;;0.80;;
19285;SDS011;9776;50.798;6.430;2022-07-01T11:09:47;1.13;;;0.77;;
19285;SDS011;9776;50.798;6.430;2022-07-01T11:12:15;0.70;;;0.70;;
19285;SDS011;9776;50.798;6.430;2022-07-01T11:14:42;0.85;;;0.85;;
19285;SDS011;9776;50.798;6.430;2022-07-01T11:17:09;1.00;;;0.80;;
19285;SDS011;9776;50.798;6.430;2022-07-01T11:19:36;1.10;;;0.70;;
19285;SDS011;9776;50.798;6.430;2022-07-01T11:22:03;0.65;;;0.65;;
19285;SDS011;9776;50.798;6.430;2022-07-01T11:24:31;1.17;;;0.95;;
19285;SDS011;9776;50.798;6.430;2022-07-01T11:27:00;0.70;;;0.70;;
19285;SDS011;9776;50.798;6.430;2022-07-01T11:29:32;0.70;;;0.70;;
19285;SDS011;9776;50.798;6.430;2022-07-01T11:32:00;0.60;;;0.60;;
19285;SDS011;9776;50.798;6.430;2022-07-01T11:34:26;0.65;;;0.60;;
19285;SDS011;9776;50.798;6.430;2022-07-01T11:36:54;0.60;;;0.43;;
19285;SDS011;9776;50.798;6.430;2022-07-01T11:39:38;0.73;;;0.55;;
19285;SDS011;9776;50.798;6.430;2022-07-01T11:42:09;0.50;;;0.50;;
19285;SDS011;9776;50.798;6.430;2022-07-01T11:44:37;1.75;;;0.50;;
19285;SDS011;9776;50.798;6.430;2022-07-01T11:47:06;0.93;;;0.60;;
19285;SDS011;9776;50.798;6.430;2022-07-01T11:49:42;0.50;;;0.50;;
19285;SDS011;9776;50.798;6.430;2022-07-01T11:52:11;0.50;;;0.50;;
19285;SDS011;9776;50.798;6.430;2022-07-01T11:54:38;0.50;;;0.50;;
19285;SDS011;9776;50.798;6.430;2022-07-01T11:57:11;0.52;;;0.40;;
19285;SDS011;9776;50.798;6.430;2022-07-01T11:59:40;0.40;;;0.40;;
19285;SDS011;9776;50.798;6.430;2022-07-01T12:02:08;0.52;;;0.52;;
19285;SDS011;9776;50.798;6.430;2022-07-01T12:04:36;1.10;;;0.60;;
19285;SDS011;9776;50.798;6.430;2022-07-01T12:07:03;0.65;;;0.50;;
19285;SDS011;9776;50.798;6.430;2022-07-01T12:09:31;0.60;;;0.60;;
19285;SDS011;9776;50.798;6.430;2022-07-01T12:11:58;0.50;;;0.50;;
19285;SDS011;9776;50.798;6.430;2022-07-01T12:14:27;0.65;;;0.60;;
19285;SDS011;9776;50.798;6.430;2022-07-01T12:16:55;2.17;;;0.70;;
19285;SDS011;9776;50.798;6.430;2022-07-01T12:19:26;0.50;;;0.50;;
19285;SDS011;9776;50.798;6.430;2022-07-01T12:21:54;0.50;;;0.50;;
19285;SDS011;9776;50.798;6.430;2022-07-01T12:24:26;1.02;;;0.50;;
19285;SDS011;9776;50.798;6.430;2022-07-01T12:26:53;0.50;;;0.50;;
19285;SDS011;9776;50.798;6.430;2022-07-01T12:29:30;0.50;;;0.47;;
19285;SDS011;9776;50.798;6.430;2022-07-01T12:32:16;0.45;;;0.45;;
19285;SDS011;9776;50.798;6.430;2022-07-01T12:34:45;1.38;;;0.57;;
19285;SDS011;9776;50.798;6.430;2022-07-01T12:37:13;0.60;;;0.60;;
19285;SDS011;9776;50.798;6.430;2022-07-01T12:39:42;0.50;;;0.50;;
19285;SDS011;9776;50.798;6.430;2022-07-01T12:42:19;0.52;;;0.52;;
19285;SDS011;9776;50.798;6.430;2022-07-01T12:44:49;0.52;;;0.50;;
19285;SDS011;9776;50.798;6.430;2022-07-01T12:47:17;0.60;;;0.60;;
19285;SDS011;9776;50.798;6.430;2022-07-01T12:49:45;0.50;;;0.50;;
19285;SDS011;9776;50.798;6.430;2022-07-01T12:52:25;0.88;;;0.68;;
19285;SDS011;9776;50.798;6.430;2022-07-01T12:54:54;0.60;;;0.60;;
19285;SDS011;9776;50.798;6.430;2022-07-01T12:57:29;0.65;;;0.50;;
19285;SDS011;9776;50.798;6.430;2022-07-01T12:59:58;0.60;;;0.60;;
19285;SDS011;9776;50.798;6.430;2022-07-01T13:02:25;0.60;;;0.60;;
19285;SDS011;9776;50.798;6.430;2022-07-01T13:04:52;0.70;;;0.70;;
19285;SDS011;9776;50.798;6.430;2022-07-01T13:07:19;0.70;;;0.70;;
19285;SDS011;9776;50.798;6.430;2022-07-01T13:09:45;0.70;;;0.70;;
19285;SDS011;9776;50.798;6.430;2022-07-01T13:12:12;1.73;;;0.80;;
19285;SDS011;9776;50.798;6.430;2022-07-01T13:14:39;1.00;;;1.00;;
19285;SDS011;9776;50.798;6.430;2022-07-01T13:17:07;1.33;;;1.23;;
19285;SDS011;9776;50.798;6.430;2022-07-01T13:19:34;0.93;;;0.93;;
19285;SDS011;9776;50.798;6.430;2022-07-01T13:22:01;1.00;;;1.00;;
19285;SDS011;9776;50.798;6.430;2022-07-01T13:24:28;1.20;;;1.20;;
19285;SDS011;9776;50.798;6.430;2022-07-01T13:26:55;1.10;;;1.10;;
19285;SDS011;9776;50.798;6.430;2022-07-01T13:29:22;2.65;;;1.30;;
19285;SDS011;9776;50.798;6.430;2022-07-01T13:31:49;1.38;;;1.30;;
19285;SDS011;9776;50.798;6.430;2022-07-01T13:34:17;1.05;;;1.05;;
19285;SDS011;9776;50.798;6.430;2022-07-01T13:36:46;1.15;;;1.08;;
19285;SDS011;9776;50.798;6.430;2022-07-01T13:39:13;1.02;;;1.02;;
19285;SDS011;9776;50.798;6.430;2022-07-01T13:41:40;1.00;;;1.00;;
19285;SDS011;9776;50.798;6.430;2022-07-01T13:44:06;0.90;;;0.90;;
19285;SDS011;9776;50.798;6.430;2022-07-01T13:46:33;0.73;;;0.73;;
19285;SDS011;9776;50.798;6.430;2022-07-01T13:49:01;0.88;;;0.88;;
19285;SDS011;9776;50.798;6.430;2022-07-01T13:51:29;0.73;;;0.73;;
19285;SDS011;9776;50.798;6.430;2022-07-01T13:53:56;0.80;;;0.77;;
19285;SDS011;9776;50.798;6.430;2022-07-01T13:56:24;0.75;;;0.75;;
19285;SDS011;9776;50.798;6.430;2022-07-01T13:58:50;0.88;;;0.88;;
19285;SDS011;9776;50.798;6.430;2022-07-01T14:01:17;1.13;;;0.82;;
19285;SDS011;9776;50.798;6.430;2022-07-01T14:03:45;0.82;;;0.82;;
19285;SDS011;9776;50.798;6.430;2022-07-01T14:06:12;0.60;;;0.60;;
19285;SDS011;9776;50.798;6.430;2022-07-01T14:08:40;0.80;;;0.80;;
19285;SDS011;9776;50.798;6.430;2022-07-01T14:11:07;0.70;;;0.70;;
19285;SDS011;9776;50.798;6.430;2022-07-01T14:13:33;0.70;;;0.70;;
19285;SDS011;9776;50.798;6.430;2022-07-01T14:16:02;0.60;;;0.60;;
19285;SDS011;9776;50.798;6.430;2022-07-01T14:18:31;0.98;;;0.90;;
19285;SDS011;9776;50.798;6.430;2022-07-01T14:20:58;0.80;;;0.80;;
19285;SDS011;9776;50.798;6.430;2022-07-01T14:23:25;0.80;;;0.80;;
19285;SDS011;9776;50.798;6.430;2022-07-01T14:25:53;0.60;;;0.60;;
19285;SDS011;9776;50.798;6.430;2022-07-01T14:28:20;0.82;;;0.82;;
19285;SDS011;9776;50.798;6.430;2022-07-01T14:30:46;0.70;;;0.70;;
19285;SDS011;9776;50.798;6.430;2022-07-01T14:33:14;0.73;;;0.73;;
19285;SDS011;9776;50.798;6.430;2022-07-01T14:35:41;0.80;;;0.80;;
19285;SDS011;9776;50.798;6.430;2022-07-01T14:38:08;0.88;;;0.88;;
19285;SDS011;9776;50.798;6.430;2022-07-01T14:40:35;0.82;;;0.80;;
19285;SDS011;9776;50.798;6.430;2022-07-01T14:43:05;0.88;;;0.88;;
19285;SDS011;9776;50.798;6.430;2022-07-01T14:45:32;0.80;;;0.80;;
19285;SDS011;9776;50.798;6.430;2022-07-01T14:47:58;0.80;;;0.80;;
19285;SDS011;9776;50.798;6.430;2022-07-01T14:50:25;0.85;;;0.82;;
19285;SDS011;9776;50.798;6.430;2022-07-01T14:52:52;0.95;;;0.70;;
19285;SDS011;9776;50.798;6.430;2022-07-01T14:55:19;0.80;;;0.80;;
19285;SDS011;9776;50.798;6.430;2022-07-01T14:57:46;0.68;;;0.68;;
19285;SDS011;9776;50.798;6.430;2022-07-01T15:00:14;0.70;;;0.70;;
19285;SDS011;9776;50.798;6.430;2022-07-01T15:02:41;0.82;;;0.82;;
19285;SDS011;9776;50.798;6.430;2022-07-01T15:05:08;0.70;;;0.70;;
19285;SDS011;9776;50.798;6.430;2022-07-01T15:07:35;0.80;;;0.80;;
19285;SDS011;9776;50.798;6.430;2022-07-01T15:10:02;0.80;;;0.80;;
19285;SDS011;9776;50.798;6.430;2022-07-01T15:12:29;0.90;;;0.90;;
19285;SDS011;9776;50.798;6.430;2022-07-01T15:14:56;0.75;;;0.75;;
19285;SDS011;9776;50.798;6.430;2022-07-01T15:17:24;0.80;;;0.70;;
19285;SDS011;9776;50.798;6.430;2022-07-01T15:19:51;0.70;;;0.70;;